Providence Forge, Virginia
Current Conditions -  °F | °C
As of 8:55 AM on Friday 31 Oct 2014 (Local Time) from KW96 Reporting Station
Clear Clear  
Wind Chill: 41°   Ceiling: Unl
Heat Index: 44°   Visibility: 10mi
Dew Point: 40°   Wind: 5mph
Humidity: 88%   Direction: 40°NE
Pressure: 29.99"   Gusts: NA
Location:  37.44°N, 77.04°W
Report Text: KW96 311255Z AUTO 04004KT 10SM CLR 07/05 A2999 RMK AO1 T00650046
Loading
Personal Weather Stations






























Interactive Weather Map
Tropical Storm Tracking
New forecast layout! Learn more

10-Day Weather Forecast

Advertisements
Track Severe Weather on mobile